Terminal Aerodrome Forecast
Issued by NWS

Home | Current Version | Previous Version | Text Only | Print | Product List | Glossary On
Versions: 1 2 3 4 5 6 7 8 9 10 11 12 13 14 15
075
FTUS43 KGRB 251735
TAFMTW
TAF
KMTW 251735Z 2518/2618 06009KT P6SM SCT010 BKN200
     FM260100 10007KT 6SM -SHRA BR BKN035 OVC070
      TEMPO 2601/2604 2SM TSRA BKN008 OVC020CB
     FM260600 17005KT 4SM BR OVC009
     FM261500 22009KT P6SM BKN020=

USA.gov is the U.S. government's official web portal to all federal, state and local government web resources and services.